Time;durP1;ratioP1;P1;durP2;ratioP2;P2;SDS_P1;SDS_P2;PMS_P1;PMS_P2;Temp;Humidity;BMP_temperature;BMP_pressure;BME280_temperature;BME280_humidity;BME280_pressure;Samples;Min_cycle;Max_cycle;Signal;HPM_P1;HPM_P2
2022/09/08 00:00:44;;;;;;;2.03;1.42;;;23.60;83.40;;;;;;5039778;28;20234;-70
2022/09/08 00:03:14;;;;;;;1.10;1.10;;;23.60;83.40;;;;;;5039458;28;20218;-71
2022/09/08 00:06:00;;;;;;;1.30;1.20;;;23.50;83.30;;;;;;5022161;28;20187;-71
2022/09/08 00:08:27;;;;;;;1.38;1.27;;;23.50;83.20;;;;;;5022878;28;20180;-70
2022/09/08 00:10:57;;;;;;;1.35;1.25;;;23.60;83.30;;;;;;5038627;28;20766;-70
2022/09/08 00:13:26;;;;;;;1.23;1.13;;;23.50;83.20;;;;;;5039421;28;20631;-70
2022/09/08 00:15:52;;;;;;;1.30;1.20;;;23.60;83.30;;;;;;5038101;28;20314;-70
2022/09/08 00:18:19;;;;;;;1.65;1.15;;;23.50;83.20;;;;;;5023196;28;20191;-71
2022/09/08 00:20:45;;;;;;;1.00;1.00;;;23.50;83.30;;;;;;5022690;28;20214;-71
2022/09/08 00:23:11;;;;;;;1.60;1.50;;;23.50;83.30;;;;;;5039407;28;20176;-71
2022/09/08 00:25:37;;;;;;;2.03;1.60;;;23.50;83.30;;;;;;5039503;28;20273;-70
2022/09/08 00:28:03;;;;;;;1.25;1.15;;;23.50;83.30;;;;;;5038662;28;20230;-71
2022/09/08 00:30:30;;;;;;;1.15;1.10;;;23.50;83.20;;;;;;5039400;28;20210;-71
2022/09/08 00:32:57;;;;;;;1.20;1.10;;;23.50;83.30;;;;;;5039254;28;20194;-71
2022/09/08 00:35:22;;;;;;;1.60;1.38;;;23.50;83.20;;;;;;5039339;28;20230;-71
2022/09/08 00:37:52;;;;;;;1.80;1.30;;;23.50;83.20;;;;;;5038697;28;20191;-70
2022/09/08 00:40:19;;;;;;;1.38;1.27;;;23.50;83.20;;;;;;5039602;28;20294;-71
2022/09/08 00:42:45;;;;;;;1.27;1.17;;;23.50;83.20;;;;;;5022951;28;20206;-71
2022/09/08 00:45:17;;;;;;;1.50;1.40;;;23.50;83.20;;;;;;5039890;28;20187;-70
2022/09/08 00:47:59;;;;;;;1.80;1.08;;;23.50;83.20;;;;;;5038645;28;20257;-70
2022/09/08 00:50:28;;;;;;;2.00;1.15;;;23.50;83.30;;;;;;5056227;28;20207;-71
2022/09/08 00:53:03;;;;;;;1.10;1.10;;;23.50;83.20;;;;;;5030112;28;20197;-71
2022/09/08 00:55:34;;;;;;;1.48;1.30;;;23.50;83.20;;;;;;5022821;28;20242;-71
2022/09/08 00:58:00;;;;;;;1.20;1.10;;;23.50;83.20;;;;;;5020508;28;20183;-70
2022/09/08 01:00:27;;;;;;;0.98;0.95;;;23.50;83.30;;;;;;5019587;28;20207;-70
2022/09/08 01:02:53;;;;;;;1.45;1.35;;;23.50;83.20;;;;;;5038489;28;20186;-70
2022/09/08 01:05:32;;;;;;;1.60;1.25;;;23.50;83.20;;;;;;5037888;28;20240;-71
2022/09/08 01:14:16;;;;;;;1.05;1.02;;;23.50;83.40;;;;;;5036856;28;20585;-70
2022/09/08 01:16:46;;;;;;;1.23;1.08;;;23.50;83.20;;;;;;5037195;28;20186;-71
2022/09/08 01:19:28;;;;;;;1.00;1.00;;;23.50;83.30;;;;;;5038110;28;20187;-70
2022/09/08 01:22:31;;;;;;;1.30;0.95;;;23.50;83.30;;;;;;5038405;28;20182;-71
2022/09/08 01:25:18;;;;;;;1.20;1.10;;;23.40;83.30;;;;;;4999510;28;20210;-71
2022/09/08 01:27:50;;;;;;;1.50;1.40;;;23.50;83.40;;;;;;5020004;28;20187;-71
2022/09/08 01:30:17;;;;;;;1.20;1.10;;;23.50;83.30;;;;;;5036659;28;20215;-71
2022/09/08 01:32:45;;;;;;;1.05;0.90;;;23.50;83.40;;;;;;5036893;28;20187;-70
2022/09/08 01:35:31;;;;;;;1.20;1.02;;;23.50;83.20;;;;;;5035053;28;20211;-70
2022/09/08 01:37:57;;;;;;;1.42;1.23;;;23.50;83.30;;;;;;5020074;28;20266;-70
2022/09/08 01:40:24;;;;;;;1.30;1.20;;;23.40;83.20;;;;;;5037104;28;20234;-70
2022/09/08 01:42:50;;;;;;;1.20;1.10;;;23.40;83.20;;;;;;5036771;28;20179;-70
2022/09/08 01:45:16;;;;;;;1.05;1.05;;;23.50;83.30;;;;;;5020480;28;20187;-70
2022/09/08 01:47:42;;;;;;;1.30;1.20;;;23.40;83.30;;;;;;5020099;28;20187;-70
2022/09/08 01:50:09;;;;;;;1.77;1.23;;;23.40;83.20;;;;;;5020016;28;20207;-70
2022/09/08 01:52:35;;;;;;;1.95;1.13;;;23.40;83.30;;;;;;5036775;28;20183;-70
2022/09/08 01:55:02;;;;;;;1.58;0.85;;;23.40;83.30;;;;;;5036042;28;20207;-71
2022/09/08 01:57:28;;;;;;;1.75;1.10;;;23.40;83.30;;;;;;5035622;28;20274;-71
2022/09/08 01:59:54;;;;;;;0.90;0.90;;;23.40;83.30;;;;;;5019697;28;20233;-70
2022/09/08 02:02:19;;;;;;;0.93;0.82;;;23.40;83.30;;;;;;5036843;28;20183;-71
2022/09/08 02:04:45;;;;;;;1.35;1.20;;;23.40;83.30;;;;;;5036754;28;20183;-70
2022/09/08 02:07:11;;;;;;;1.02;1.00;;;23.40;83.30;;;;;;5036959;28;20189;-70
2022/09/08 02:09:37;;;;;;;1.35;1.10;;;23.40;83.20;;;;;;5037333;28;20195;-71
2022/09/08 02:12:04;;;;;;;1.10;1.00;;;23.40;83.20;;;;;;5037755;28;20195;-70
2022/09/08 02:14:30;;;;;;;1.13;1.02;;;23.40;83.20;;;;;;5037563;28;20184;-71
2022/09/08 02:16:55;;;;;;;1.08;1.00;;;23.40;83.10;;;;;;5037162;28;20213;-70
2022/09/08 02:19:21;;;;;;;1.08;1.00;;;23.40;83.10;;;;;;5020553;28;20187;-70
2022/09/08 02:21:47;;;;;;;0.90;0.90;;;23.40;83.10;;;;;;5037153;28;20202;-70
2022/09/08 02:24:13;;;;;;;0.90;0.90;;;23.40;83.20;;;;;;5037242;28;20184;-71
2022/09/08 02:26:40;;;;;;;1.27;1.00;;;23.40;83.10;;;;;;5019952;28;20201;-70
2022/09/08 02:29:09;;;;;;;0.77;0.77;;;23.40;83.10;;;;;;5037503;28;20241;-71
2022/09/08 02:31:36;;;;;;;0.95;0.95;;;23.40;83.20;;;;;;5037537;28;20211;-71
2022/09/08 02:34:02;;;;;;;0.95;0.95;;;23.40;83.20;;;;;;5038008;28;20654;-71
2022/09/08 02:36:28;;;;;;;2.67;1.30;;;23.40;83.20;;;;;;5054122;28;20302;-70
2022/09/08 02:38:55;;;;;;;1.00;0.90;;;23.40;84.00;;;;;;5021353;28;20281;-71
2022/09/08 02:41:23;;;;;;;0.85;0.85;;;23.40;83.20;;;;;;5037535;28;20203;-71
2022/09/08 02:43:49;;;;;;;1.08;1.00;;;23.40;83.20;;;;;;5021137;28;20187;-71
2022/09/08 02:46:16;;;;;;;1.50;0.93;;;23.40;83.20;;;;;;5037570;28;20195;-70
2022/09/08 02:48:42;;;;;;;1.38;1.27;;;23.40;83.20;;;;;;5037736;28;20184;-70
2022/09/08 02:51:12;;;;;;;0.90;0.90;;;23.40;83.10;;;;;;5037195;28;20214;-71
2022/09/08 02:53:39;;;;;;;0.90;0.90;;;23.40;83.10;;;;;;5019170;28;20215;-70
2022/09/08 02:56:07;;;;;;;0.80;0.80;;;23.40;83.20;;;;;;5018226;28;20239;-70
2022/09/08 02:58:34;;;;;;;1.15;1.02;;;23.40;83.10;;;;;;5032950;28;20183;-70
2022/09/08 03:01:00;;;;;;;0.80;0.80;;;23.40;83.10;;;;;;5020661;28;20698;-72
2022/09/08 03:03:27;;;;;;;0.80;0.80;;;23.40;83.10;;;;;;5007061;28;20179;-71
2022/09/08 03:05:53;;;;;;;1.20;1.10;;;23.40;83.10;;;;;;5019297;28;20199;-71
2022/09/08 03:08:21;;;;;;;1.20;1.10;;;23.40;83.10;;;;;;5000827;28;20187;-71
2022/09/08 03:10:50;;;;;;;1.10;1.00;;;23.40;82.90;;;;;;5017709;28;20199;-71
2022/09/08 03:13:17;;;;;;;1.00;1.00;;;23.40;83.00;;;;;;5001255;28;20207;-70
2022/09/08 03:15:43;;;;;;;0.90;0.90;;;23.40;82.90;;;;;;5017871;28;20303;-71
2022/09/08 03:18:10;;;;;;;1.27;1.00;;;23.40;82.90;;;;;;5000148;28;20196;-70
2022/09/08 03:20:38;;;;;;;1.25;1.15;;;23.40;83.00;;;;;;5000661;28;20238;-71
2022/09/08 03:23:04;;;;;;;0.85;0.85;;;23.40;83.00;;;;;;5000844;28;20184;-70
2022/09/08 03:25:36;;;;;;;1.15;1.05;;;23.40;83.00;;;;;;5017037;28;20191;-70
2022/09/08 03:28:04;;;;;;;1.05;0.93;;;23.40;83.10;;;;;;5017028;28;20196;-70
2022/09/08 03:30:30;;;;;;;1.00;0.90;;;23.30;82.90;;;;;;5001351;28;20204;-71
2022/09/08 03:32:55;;;;;;;0.77;0.77;;;23.40;83.00;;;;;;5002973;28;20191;-71
2022/09/08 03:35:21;;;;;;;1.05;0.88;;;23.30;82.90;;;;;;5005828;28;20299;-71
2022/09/08 03:37:47;;;;;;;1.20;0.80;;;23.40;83.00;;;;;;5020541;28;20190;-71
2022/09/08 03:40:16;;;;;;;1.02;0.93;;;23.40;83.00;;;;;;5021096;28;20200;-70
2022/09/08 03:42:44;;;;;;;1.50;0.93;;;23.40;83.00;;;;;;5005196;28;20188;-71
2022/09/08 03:45:17;;;;;;;2.35;1.05;;;23.40;83.00;;;;;;5005520;28;20275;-71
2022/09/08 03:47:44;;;;;;;0.85;0.85;;;23.30;82.90;;;;;;5004709;28;20203;-71
2022/09/08 03:50:13;;;;;;;1.20;1.10;;;23.40;82.90;;;;;;5021402;28;20211;-71
2022/09/08 03:52:39;;;;;;;0.90;0.90;;;23.30;82.80;;;;;;5037905;28;20194;-70
2022/09/08 03:55:05;;;;;;;0.88;0.88;;;23.30;82.70;;;;;;5004858;28;20293;-71
2022/09/08 03:57:31;;;;;;;0.70;0.70;;;23.30;82.70;;;;;;5020786;28;20176;-71
2022/09/08 03:59:59;;;;;;;0.95;0.95;;;23.40;82.90;;;;;;5020503;28;20208;-70
2022/09/08 04:02:27;;;;;;;0.80;0.80;;;23.30;82.70;;;;;;5036907;28;20192;-71
2022/09/08 04:04:56;;;;;;;0.80;0.80;;;23.40;82.80;;;;;;5004056;28;20188;-71
2022/09/08 04:07:29;;;;;;;0.80;0.80;;;23.30;82.80;;;;;;5003706;28;20184;-70
2022/09/08 04:09:57;;;;;;;0.70;0.70;;;23.30;82.90;;;;;;5004507;28;20211;-71
2022/09/08 04:12:25;;;;;;;1.08;0.75;;;23.30;82.90;;;;;;5020616;28;20196;-70
2022/09/08 04:14:51;;;;;;;0.80;0.80;;;23.30;82.80;;;;;;5003882;28;20208;-71
2022/09/08 04:17:19;;;;;;;1.30;0.90;;;23.30;82.80;;;;;;5019819;28;20180;-71
2022/09/08 04:19:50;;;;;;;1.08;0.85;;;23.30;82.70;;;;;;5020495;28;20220;-70
2022/09/08 04:22:21;;;;;;;0.85;0.85;;;23.30;82.70;;;;;;5020067;28;20283;-70
2022/09/08 04:24:47;;;;;;;0.70;0.70;;;23.30;82.80;;;;;;5020120;28;20192;-70
2022/09/08 04:27:16;;;;;;;0.70;0.70;;;23.30;82.80;;;;;;5020172;28;20184;-70
2022/09/08 04:29:42;;;;;;;0.93;0.90;;;23.30;82.70;;;;;;5003078;28;20204;-71
2022/09/08 04:32:08;;;;;;;1.15;0.85;;;23.30;82.70;;;;;;5019940;28;20206;-70
2022/09/08 04:34:37;;;;;;;1.63;0.75;;;23.30;82.70;;;;;;5020009;28;20275;-70
2022/09/08 04:37:04;;;;;;;0.70;0.70;;;23.30;82.60;;;;;;5019770;28;20576;-71
2022/09/08 04:39:32;;;;;;;0.80;0.80;;;23.30;82.50;;;;;;5019864;28;20188;-70
2022/09/08 04:41:57;;;;;;;0.85;0.80;;;23.30;82.50;;;;;;5020147;28;20180;-71
2022/09/08 04:44:23;;;;;;;0.85;0.80;;;23.30;82.60;;;;;;5019576;28;20188;-70
2022/09/08 04:46:49;;;;;;;0.90;0.70;;;23.30;82.60;;;;;;5022646;28;20195;-71
2022/09/08 04:49:15;;;;;;;0.70;0.70;;;23.30;82.70;;;;;;5039813;28;20280;-71
2022/09/08 04:51:42;;;;;;;0.88;0.88;;;23.30;82.60;;;;;;5039743;28;20203;-71
2022/09/08 04:54:09;;;;;;;0.80;0.80;;;23.30;82.70;;;;;;5039785;28;20183;-71
2022/09/08 04:56:36;;;;;;;0.65;0.63;;;23.30;82.60;;;;;;5038138;28;20211;-70
2022/09/08 04:59:04;;;;;;;0.75;0.70;;;23.30;82.60;;;;;;5038855;28;20329;-70
2022/09/08 05:01:34;;;;;;;0.52;0.52;;;23.30;82.60;;;;;;5038210;28;20203;-70
2022/09/08 05:04:01;;;;;;;0.65;0.65;;;23.30;82.60;;;;;;5021987;28;20179;-70
2022/09/08 05:06:31;;;;;;;0.65;0.60;;;23.30;82.60;;;;;;5037875;28;20406;-70
2022/09/08 05:08:59;;;;;;;0.68;0.68;;;23.30;82.50;;;;;;5022474;28;20187;-71
2022/09/08 05:11:27;;;;;;;0.70;0.70;;;23.30;82.60;;;;;;5022688;28;20199;-71
2022/09/08 05:13:55;;;;;;;0.60;0.60;;;23.30;82.60;;;;;;5021634;28;20183;-70
2022/09/08 05:16:24;;;;;;;0.90;0.65;;;23.30;82.40;;;;;;5021985;28;20219;-70
2022/09/08 05:19:00;;;;;;;0.80;0.80;;;23.30;82.50;;;;;;5022891;28;20245;-71
2022/09/08 05:21:28;;;;;;;0.50;0.50;;;23.30;82.60;;;;;;5039344;28;20203;-71
2022/09/08 05:23:59;;;;;;;0.60;0.60;;;23.30;82.40;;;;;;5022949;28;20262;-71
2022/09/08 05:26:26;;;;;;;0.60;0.60;;;23.30;82.40;;;;;;5021907;28;20187;-70
2022/09/08 05:28:53;;;;;;;1.17;0.70;;;23.30;82.40;;;;;;5015049;28;20184;-70
2022/09/08 05:31:23;;;;;;;0.63;0.63;;;23.30;82.40;;;;;;5017572;28;20227;-70
2022/09/08 05:33:51;;;;;;;1.05;0.60;;;23.30;82.40;;;;;;5002202;28;20184;-70
2022/09/08 05:36:23;;;;;;;0.73;0.73;;;23.30;82.40;;;;;;5017057;28;20211;-70
2022/09/08 05:38:50;;;;;;;0.70;0.70;;;23.20;82.30;;;;;;5000402;28;20195;-70
2022/09/08 05:41:17;;;;;;;0.63;0.63;;;23.30;82.40;;;;;;5000648;28;20196;-71
2022/09/08 05:43:43;;;;;;;1.08;0.80;;;23.20;82.30;;;;;;5001779;28;20195;-71
2022/09/08 05:46:10;;;;;;;0.80;0.70;;;23.20;82.30;;;;;;5001832;28;20211;-71
2022/09/08 05:48:36;;;;;;;0.68;0.68;;;23.20;82.30;;;;;;5001177;28;20195;-71
2022/09/08 05:51:08;;;;;;;0.60;0.60;;;23.20;82.30;;;;;;5001139;28;20204;-71
2022/09/08 05:53:34;;;;;;;0.77;0.60;;;23.20;82.30;;;;;;5000920;28;20684;-71
2022/09/08 05:56:03;;;;;;;1.88;0.57;;;23.20;82.40;;;;;;5016564;28;20223;-71
2022/09/08 05:58:30;;;;;;;0.63;0.63;;;23.20;82.40;;;;;;5000513;28;20184;-71
2022/09/08 06:01:00;;;;;;;0.90;0.90;;;23.20;82.40;;;;;;5000929;28;20214;-71
2022/09/08 06:03:27;;;;;;;0.70;0.70;;;23.30;82.40;;;;;;5017630;28;20282;-71
2022/09/08 06:05:55;;;;;;;0.70;0.70;;;23.20;82.30;;;;;;5001253;28;20184;-71
2022/09/08 06:08:22;;;;;;;0.50;0.50;;;23.20;82.30;;;;;;5006330;28;20187;-70
2022/09/08 06:10:53;;;;;;;0.52;0.52;;;23.20;82.30;;;;;;5019374;28;20274;-70
2022/09/08 06:13:23;;;;;;;0.65;0.55;;;23.20;82.40;;;;;;5016518;28;20247;-70
2022/09/08 06:15:50;;;;;;;0.75;0.60;;;23.20;82.40;;;;;;5034108;28;20667;-70
2022/09/08 06:18:17;;;;;;;0.50;0.50;;;23.20;83.20;;;;;;5017608;28;20191;-70
2022/09/08 06:20:44;;;;;;;0.68;0.60;;;23.20;82.50;;;;;;5019919;28;20198;-70
2022/09/08 06:23:12;;;;;;;0.68;0.68;;;23.20;82.50;;;;;;5036387;28;20187;-71
2022/09/08 06:25:44;;;;;;;1.52;0.77;;;23.20;82.50;;;;;;5025205;28;20198;-70
2022/09/08 06:28:16;;;;;;;0.43;0.43;;;23.20;82.50;;;;;;5035952;28;20209;-71
2022/09/08 06:30:50;;;;;;;0.70;0.70;;;23.20;82.50;;;;;;5030485;28;20307;-71
2022/09/08 06:33:27;;;;;;;0.60;0.50;;;23.20;82.60;;;;;;5049479;28;20188;-70
2022/09/08 06:36:10;;;;;;;0.50;0.50;;;23.20;82.50;;;;;;5016543;28;20247;-70
2022/09/08 06:38:50;;;;;;;0.65;0.65;;;23.20;82.60;;;;;;5035567;28;20253;-71
2022/09/08 06:41:27;;;;;;;0.70;0.70;;;23.20;82.50;;;;;;5036207;28;20211;-71
2022/09/08 06:44:16;;;;;;;1.50;0.77;;;23.20;82.60;;;;;;5037111;28;20175;-70
2022/09/08 06:46:44;;;;;;;1.63;0.77;;;23.20;83.40;;;;;;5019971;28;20179;-70
2022/09/08 06:49:11;;;;;;;0.60;0.57;;;23.20;82.60;;;;;;5020095;28;20195;-70
2022/09/08 06:51:47;;;;;;;0.73;0.70;;;23.20;82.60;;;;;;5037878;28;20203;-70
2022/09/08 06:54:51;;;;;;;0.50;0.50;;;23.20;82.60;;;;;;5036209;28;20194;-70
2022/09/08 06:57:36;;;;;;;0.80;0.75;;;23.20;82.60;;;;;;5028503;28;20702;-71
2022/09/08 07:00:22;;;;;;;1.00;0.65;;;23.20;82.50;;;;;;5018261;28;20227;-70
2022/09/08 07:03:17;;;;;;;0.77;0.77;;;23.20;82.60;;;;;;5019022;28;20185;-71
2022/09/08 07:06:06;;;;;;;1.20;0.60;;;23.20;82.50;;;;;;5000444;28;20195;-70
2022/09/08 07:08:59;;;;;;;0.40;0.40;;;23.20;82.30;;;;;;5020589;28;20223;-71
2022/09/08 07:11:38;;;;;;;0.70;0.65;;;23.20;82.30;;;;;;5004758;28;20215;-70
2022/09/08 07:14:30;;;;;;;0.60;0.60;;;23.20;82.30;;;;;;5004165;28;20651;-70
2022/09/08 07:17:45;;;;;;;0.57;0.55;;;23.20;82.40;;;;;;5003956;28;20192;-70
2022/09/08 07:20:12;;;;;;;0.70;0.70;;;23.20;82.30;;;;;;5002641;28;20691;-69
2022/09/08 07:23:08;;;;;;;0.63;0.60;;;23.20;82.30;;;;;;5004334;28;20195;-70
2022/09/08 07:26:02;;;;;;;0.70;0.70;;;23.20;82.30;;;;;;5020318;28;20180;-70
2022/09/08 07:28:40;;;;;;;1.35;0.60;;;23.20;82.30;;;;;;5019848;28;20180;-70
2022/09/08 07:31:20;;;;;;;0.65;0.57;;;23.20;82.30;;;;;;5019915;28;20200;-70
2022/09/08 07:33:59;;;;;;;0.98;0.80;;;23.20;82.30;;;;;;5036318;28;20188;-70
2022/09/08 07:37:08;;;;;;;1.45;0.68;;;23.20;82.30;;;;;;5020116;28;20204;-70
2022/09/08 07:39:48;;;;;;;0.55;0.55;;;23.20;82.30;;;;;;5020256;28;20184;-71
2022/09/08 07:42:15;;;;;;;0.77;0.52;;;23.20;82.30;;;;;;5020707;28;20172;-70
2022/09/08 07:44:41;;;;;;;0.57;0.57;;;23.20;82.70;;;;;;5020235;28;20188;-70
2022/09/08 07:47:29;;;;;;;0.93;0.52;;;23.20;82.40;;;;;;5019055;28;20180;-70
2022/09/08 07:50:04;;;;;;;0.60;0.60;;;23.20;82.30;;;;;;5019520;28;20204;-70
2022/09/08 07:52:42;;;;;;;0.70;0.70;;;23.20;82.30;;;;;;5019105;28;20215;-69
2022/09/08 07:55:40;;;;;;;0.60;0.50;;;23.20;82.30;;;;;;5018582;28;20247;-70
2022/09/08 07:58:27;;;;;;;0.63;0.63;;;23.20;82.20;;;;;;5019136;28;20191;-69
2022/09/08 08:01:07;;;;;;;0.60;0.60;;;23.20;82.30;;;;;;5018554;28;20216;-70
2022/09/08 08:04:15;;;;;;;0.50;0.50;;;23.20;82.30;;;;;;5017969;28;20577;-70
2022/09/08 08:06:52;;;;;;;0.77;0.68;;;23.20;82.30;;;;;;5017303;28;20187;-70
2022/09/08 08:09:58;;;;;;;0.60;0.60;;;23.20;82.10;;;;;;5018577;28;20180;-69
2022/09/08 08:12:59;;;;;;;0.60;0.60;;;23.20;82.00;;;;;;5018483;28;20188;-70
2022/09/08 08:16:00;;;;;;;0.82;0.70;;;23.20;82.20;;;;;;5020868;28;20211;-70
2022/09/08 08:19:16;;;;;;;0.50;0.50;;;23.20;82.10;;;;;;5016383;28;20187;-71
2022/09/08 08:22:14;;;;;;;0.70;0.60;;;23.20;82.00;;;;;;5010271;28;20710;-70
2022/09/08 08:24:53;;;;;;;1.13;0.63;;;23.20;82.10;;;;;;5021762;28;20191;-70
2022/09/08 08:27:30;;;;;;;0.70;0.68;;;23.30;82.10;;;;;;5021414;28;20176;-70
2022/09/08 08:30:02;;;;;;;0.50;0.50;;;23.20;81.80;;;;;;5032449;28;20207;-70
2022/09/08 08:32:34;;;;;;;0.57;0.55;;;23.20;81.80;;;;;;5021524;28;20210;-70
2022/09/08 08:35:22;;;;;;;0.60;0.55;;;23.20;81.70;;;;;;5038037;28;20203;-70
2022/09/08 08:37:52;;;;;;;0.68;0.68;;;23.30;82.40;;;;;;5020106;28;20178;-70
2022/09/08 08:40:43;;;;;;;0.85;0.75;;;23.30;81.60;;;;;;5015640;28;20204;-70
2022/09/08 08:43:43;;;;;;;0.50;0.50;;;23.20;81.50;;;;;;5021051;28;20180;-70
2022/09/08 08:46:25;;;;;;;0.50;0.50;;;23.20;81.60;;;;;;5036683;28;20255;-70
2022/09/08 08:49:25;;;;;;;0.60;0.60;;;23.30;81.40;;;;;;5020500;28;20206;-70
2022/09/08 08:52:22;;;;;;;0.50;0.50;;;23.30;81.20;;;;;;5037808;28;20179;-70
2022/09/08 08:55:44;;;;;;;0.68;0.60;;;23.30;81.30;;;;;;5037063;28;20183;-70
2022/09/08 08:58:38;;;;;;;0.50;0.50;;;23.30;81.40;;;;;;5036417;28;20180;-70
2022/09/08 09:01:16;;;;;;;0.65;0.60;;;23.30;81.40;;;;;;5025184;28;20232;-69
2022/09/08 09:04:06;;;;;;;0.82;0.60;;;23.30;81.50;;;;;;4999307;28;20196;-71
2022/09/08 09:06:47;;;;;;;0.68;0.68;;;23.30;81.30;;;;;;5017493;28;20183;-70
2022/09/08 09:09:40;;;;;;;0.60;0.60;;;23.30;81.40;;;;;;5018318;28;20175;-70
2022/09/08 09:12:30;;;;;;;0.60;0.60;;;23.30;81.30;;;;;;5018565;28;20176;-70
2022/09/08 09:15:33;;;;;;;0.80;0.60;;;23.30;81.30;;;;;;5018000;28;20218;-70
2022/09/08 09:18:42;;;;;;;0.50;0.50;;;23.30;81.30;;;;;;5014112;28;20195;-71
2022/09/08 09:21:56;;;;;;;0.60;0.60;;;23.30;81.30;;;;;;4998959;28;20212;-70
2022/09/08 09:25:00;;;;;;;0.75;0.50;;;23.30;81.20;;;;;;5009789;28;20560;-70
2022/09/08 09:27:45;;;;;;;0.65;0.60;;;23.30;81.20;;;;;;4997805;28;20187;-70
2022/09/08 09:31:17;;;;;;;0.57;0.50;;;23.20;81.20;;;;;;4998412;28;20211;-70
2022/09/08 09:34:16;;;;;;;0.70;0.70;;;23.30;81.30;;;;;;4958348;28;20189;-70
2022/09/08 09:37:19;;;;;;;0.60;0.60;;;23.20;81.00;;;;;;5015933;28;20204;-71
2022/09/08 09:39:56;;;;;;;0.70;0.70;;;23.30;81.20;;;;;;5019265;28;20207;-71
2022/09/08 09:42:55;;;;;;;0.70;0.70;;;23.30;81.20;;;;;;5018889;28;20600;-70
2022/09/08 09:46:13;;;;;;;0.73;0.73;;;23.30;81.00;;;;;;5018881;28;20191;-70
2022/09/08 09:49:21;;;;;;;0.60;0.60;;;23.30;81.00;;;;;;5018155;28;20195;-70
2022/09/08 09:52:10;;;;;;;1.13;0.57;;;23.30;81.00;;;;;;5018977;28;20190;-70
2022/09/08 09:55:25;;;;;;;0.60;0.60;;;23.30;80.90;;;;;;5034860;28;20187;-70
2022/09/08 09:58:50;;;;;;;0.57;0.57;;;23.30;80.90;;;;;;5018021;28;20180;-70
2022/09/08 10:01:59;;;;;;;0.50;0.50;;;23.30;80.80;;;;;;5018265;28;20203;-70
2022/09/08 10:05:01;;;;;;;0.85;0.60;;;23.30;80.70;;;;;;5018306;28;20199;-70
2022/09/08 10:07:51;;;;;;;0.85;0.70;;;23.30;80.60;;;;;;5018254;28;20262;-70
2022/09/08 10:10:34;;;;;;;0.80;0.70;;;23.30;80.70;;;;;;5018033;28;20203;-70
2022/09/08 10:13:43;;;;;;;0.60;0.60;;;23.30;80.90;;;;;;5024724;28;20179;-70
2022/09/08 10:16:41;;;;;;;1.02;0.80;;;23.30;80.70;;;;;;5035456;28;20222;-71
2022/09/08 10:20:03;;;;;;;0.95;0.60;;;23.40;80.80;;;;;;5022708;28;20202;-70
2022/09/08 10:23:28;;;;;;;0.70;0.70;;;23.40;80.70;;;;;;4962198;28;20204;-69
2022/09/08 10:26:21;;;;;;;0.73;0.70;;;23.40;80.60;;;;;;5034488;28;20179;-71
2022/09/08 10:29:23;;;;;;;0.70;0.68;;;23.40;80.70;;;;;;5018762;28;20183;-70
2022/09/08 10:32:53;;;;;;;0.63;0.63;;;23.40;80.80;;;;;;5033973;28;20191;-71
2022/09/08 10:35:47;;;;;;;0.70;0.70;;;23.40;80.50;;;;;;5000346;28;20265;-70
2022/09/08 10:38:56;;;;;;;0.70;0.70;;;23.40;80.40;;;;;;5037094;28;20262;-70
2022/09/08 10:42:31;;;;;;;1.00;0.77;;;23.40;80.50;;;;;;5021835;28;20210;-71
2022/09/08 10:45:15;;;;;;;0.80;0.60;;;23.30;80.20;;;;;;5019856;28;20203;-71
2022/09/08 10:47:53;;;;;;;1.13;0.85;;;23.40;80.20;;;;;;5042591;28;20187;-71
2022/09/08 10:50:43;;;;;;;0.90;0.90;;;23.30;80.00;;;;;;5026604;28;20709;-71
2022/09/08 10:53:45;;;;;;;1.45;0.73;;;23.30;80.00;;;;;;5026279;28;20179;-70
2022/09/08 10:56:25;;;;;;;1.17;0.70;;;23.30;80.00;;;;;;5035489;28;20209;-71
2022/09/08 10:59:35;;;;;;;0.90;0.80;;;23.30;80.00;;;;;;5022435;28;20184;-71
2022/09/08 11:02:40;;;;;;;1.73;0.90;;;23.40;80.10;;;;;;5009791;28;20191;-70
2022/09/08 11:05:42;;;;;;;1.67;0.77;;;23.40;80.00;;;;;;5040356;28;20255;-71
2022/09/08 11:08:31;;;;;;;0.80;0.80;;;23.40;80.00;;;;;;5033032;28;20246;-71
2022/09/08 11:11:28;;;;;;;0.85;0.70;;;23.40;80.00;;;;;;5042157;28;20289;-72
2022/09/08 11:14:59;;;;;;;1.77;0.60;;;23.40;80.00;;;;;;5034397;28;20184;-70
2022/09/08 11:17:28;;;;;;;1.00;0.80;;;23.30;79.80;;;;;;5042243;28;20289;-70
2022/09/08 11:20:21;;;;;;;2.22;0.82;;;23.30;79.90;;;;;;5059372;28;20211;-70
2022/09/08 11:22:47;;;;;;;1.20;0.80;;;23.30;79.80;;;;;;5043822;28;20191;-70
2022/09/08 11:25:23;;;;;;;0.82;0.70;;;23.40;79.40;;;;;;5041518;28;20190;-70
2022/09/08 11:28:46;;;;;;;0.75;0.70;;;23.40;79.60;;;;;;5024675;28;20190;-69
2022/09/08 11:31:50;;;;;;;1.42;0.70;;;23.30;79.50;;;;;;5024410;28;20672;-70
2022/09/08 11:34:38;;;;;;;0.80;0.80;;;23.40;79.60;;;;;;5036692;28;20186;-70
2022/09/08 11:37:18;;;;;;;0.85;0.85;;;23.30;79.40;;;;;;5041659;28;20193;-70
2022/09/08 11:40:26;;;;;;;1.13;0.85;;;23.40;79.50;;;;;;5043083;28;20211;-70
2022/09/08 11:43:26;;;;;;;2.08;0.73;;;23.40;79.30;;;;;;5026270;28;20183;-70
2022/09/08 11:46:13;;;;;;;1.13;0.80;;;23.40;79.20;;;;;;5025390;28;20183;-71
2022/09/08 11:48:39;;;;;;;1.73;0.70;;;23.40;79.00;;;;;;5025558;28;20215;-70
2022/09/08 11:51:35;;;;;;;0.80;0.77;;;23.40;78.70;;;;;;5024844;28;20207;-70
2022/09/08 11:54:22;;;;;;;0.80;0.80;;;23.40;78.60;;;;;;5021001;28;20196;-69
2022/09/08 11:57:26;;;;;;;0.88;0.60;;;23.40;78.30;;;;;;5018362;28;20216;-70
2022/09/08 12:00:52;;;;;;;0.80;0.70;;;23.40;78.10;;;;;;5016565;28;20256;-69
2022/09/08 12:04:05;;;;;;;1.02;0.73;;;23.40;78.30;;;;;;4986254;28;20364;-70
2022/09/08 12:06:34;;;;;;;0.75;0.70;;;23.40;77.80;;;;;;5019408;28;20278;-70
2022/09/08 12:09:33;;;;;;;1.25;0.60;;;23.40;77.40;;;;;;5035052;28;20179;-70
2022/09/08 12:12:38;;;;;;;0.60;0.60;;;23.40;77.60;;;;;;5038076;28;20179;-70
2022/09/08 12:15:53;;;;;;;0.98;0.80;;;23.40;77.20;;;;;;5034387;28;20295;-70
2022/09/08 12:18:40;;;;;;;0.70;0.70;;;23.40;77.10;;;;;;5016690;28;20188;-70
2022/09/08 12:22:00;;;;;;;0.93;0.70;;;23.40;77.30;;;;;;5017544;28;20211;-70
2022/09/08 12:24:37;;;;;;;0.80;0.70;;;23.40;77.00;;;;;;5017063;28;20188;-70
2022/09/08 12:28:00;;;;;;;0.70;0.70;;;23.40;76.60;;;;;;5032865;28;20188;-70
2022/09/08 12:31:17;;;;;;;0.77;0.77;;;23.40;76.90;;;;;;5033314;28;20231;-70
2022/09/08 12:34:24;;;;;;;1.65;0.50;;;23.40;76.60;;;;;;5034186;28;20188;-71
2022/09/08 12:36:55;;;;;;;0.82;0.60;;;23.40;76.60;;;;;;5021008;28;20215;-70
2022/09/08 12:40:05;;;;;;;0.80;0.70;;;23.40;76.60;;;;;;5021122;28;20192;-70
2022/09/08 12:43:11;;;;;;;1.45;0.77;;;23.40;76.20;;;;;;5032491;28;20191;-70
2022/09/08 12:46:04;;;;;;;1.50;0.70;;;23.40;75.90;;;;;;4947734;28;20233;-69
2022/09/08 12:49:04;;;;;;;0.68;0.60;;;23.40;76.10;;;;;;5037263;28;20199;-70
2022/09/08 12:51:34;;;;;;;0.90;0.70;;;23.40;76.00;;;;;;5014154;28;20242;-70
2022/09/08 12:54:23;;;;;;;1.77;0.80;;;23.40;75.80;;;;;;5021450;28;20176;-70
2022/09/08 12:57:34;;;;;;;1.13;0.70;;;23.40;75.30;;;;;;5021296;28;20251;-71
2022/09/08 13:00:07;;;;;;;0.50;0.50;;;23.40;75.90;;;;;;5020358;28;20215;-71
2022/09/08 13:03:19;;;;;;;0.57;0.57;;;23.40;75.50;;;;;;5037119;28;20612;-71
2022/09/08 13:06:13;;;;;;;0.70;0.70;;;23.40;75.30;;;;;;4925763;29;20710;-70
2022/09/08 13:09:25;;;;;;;0.95;0.80;;;23.40;75.20;;;;;;5033796;28;20179;-70
2022/09/08 13:12:40;;;;;;;0.90;0.75;;;23.40;75.60;;;;;;5020193;28;20184;-70
2022/09/08 13:15:06;;;;;;;2.92;0.75;;;23.40;74.70;;;;;;4942362;28;20316;-72
2022/09/08 13:18:04;;;;;;;0.70;0.70;;;23.40;74.90;;;;;;5009663;28;20282;-70
2022/09/08 13:20:37;;;;;;;0.90;0.90;;;23.40;74.70;;;;;;5032815;28;20675;-71
2022/09/08 13:23:24;;;;;;;0.95;0.70;;;23.40;74.80;;;;;;5017923;28;20671;-70
2022/09/08 13:26:19;;;;;;;1.40;0.82;;;23.40;75.30;;;;;;5017966;28;20245;-71
2022/09/08 13:29:23;;;;;;;0.88;0.85;;;23.40;75.40;;;;;;5033779;28;20179;-71
2022/09/08 13:32:10;;;;;;;0.70;0.70;;;23.40;74.50;;;;;;5030628;28;20187;-71
2022/09/08 13:35:13;;;;;;;0.77;0.60;;;23.40;74.40;;;;;;5028702;28;20194;-70
2022/09/08 13:38:17;;;;;;;1.70;0.75;;;23.40;74.80;;;;;;5032477;28;20182;-71
2022/09/08 13:41:01;;;;;;;0.95;0.70;;;23.40;75.10;;;;;;5035510;28;20213;-71
2022/09/08 13:43:56;;;;;;;0.68;0.63;;;23.40;74.60;;;;;;5034211;28;20574;-71
2022/09/08 13:46:43;;;;;;;0.95;0.70;;;23.40;74.80;;;;;;5009096;28;20205;-71
2022/09/08 13:49:25;;;;;;;0.80;0.50;;;23.40;74.10;;;;;;5018349;28;20180;-72
2022/09/08 13:52:30;;;;;;;1.00;0.55;;;23.40;74.30;;;;;;5032417;28;20183;-70
2022/09/08 13:55:25;;;;;;;1.02;0.50;;;23.40;74.60;;;;;;5026641;28;20251;-72
2022/09/08 13:58:35;;;;;;;0.88;0.60;;;23.40;73.10;;;;;;5016624;28;20187;-71
2022/09/08 14:01:10;;;;;;;0.60;0.60;;;23.40;73.90;;;;;;5001406;28;20219;-72
2022/09/08 14:03:53;;;;;;;0.55;0.55;;;23.40;73.80;;;;;;5009670;28;20183;-71
2022/09/08 14:06:22;;;;;;;0.60;0.60;;;23.40;73.00;;;;;;5017568;28;20255;-71